Hauptseite
METAR-TAF:

METAR-TAF

Flughäfen :

Flughafen Karlsruhe/Baden-Baden

Baden-Baden, Deutschland

Breite: 48-46-43N, Länge: 008-04-47E, Höhe: 124 m

Beobachtung

Neuester Wetterbericht von vor 1 Stunde und 4 Minuten, um 23:50 UTC
Wind 4 kt aus Süd/Südwest
Temperatur 3°C
Luftfeuchtigkeit 70%
Luftdruck 1014 hPa
Sichtweite 10 km oder mehr

METAR: EDSB 022350Z AUTO 20004KT 9999 NCD 03/M02 Q1014

Zeit: 02:54 (00:54 UTC)

Prognose

Neuester Wetterbericht von vor 7 Stunden und 54 Minuten, um 17:00 UTC
Gültige Prognose vom 02 um 18 UTC bis 03 um 18 UTC
Wind 3 kt aus unterschiedlichen Richtungen
Sichtweite 10 km oder mehr
keine Wolken unter 1500 m und keine Kumulonimbus oder Gewitterwolken
Übergehend zu
vom 02 um 23 UTC bis 03 um 01 UTC
Wind 6 kt aus Süd/Südwest

TAF: EDSB 021700Z 0218/0318 VRB03KT CAVOK BECMG 0223/0301 21006KT

Wetterbeobachtungen und Prognosen von mehr als 4000 Flughäfen (METAR und TAF Bericht).

Die verfügbaren Stationen werden durch gelbe und rote Markierungen auf der Karte dargestellt.

Führen Sie die Maus auf sie, um den Namen der Station zu sehen.

Darauf klicken, um die Beobachtung von Wetterbeobachtungen und Prognosen zu sehen.

Um die Karte zu ändern : klicken Sie auf den grünen Tasten mit einem schwarzen Kreuz Zum Vergrößern, auf den grünen Button mit einem Gedankenstrich zu verkleinern, oder auf die grünen Pfeile für benachbarte Karten.


METAR-TAF: